Time;durP1;ratioP1;P1;durP2;ratioP2;P2;SDS_P1;SDS_P2;PMS_P1;PMS_P2;Temp;Humidity;BMP_temperature;BMP_pressure;BME280_temperature;BME280_humidity;BME280_pressure;Samples;Min_cycle;Max_cycle;Signal;HPM_P1;HPM_P2
2021/07/24 00:00:27;;;;;;;17.35;16.50;;;15.60;99.90;;;;;;5072986;28;20024;-57
2021/07/24 00:02:54;;;;;;;16.85;15.85;;;15.80;99.90;;;;;;5072587;28;20021;-56
2021/07/24 00:05:22;;;;;;;15.55;14.75;;;15.50;99.90;;;;;;5072570;28;20028;-58
2021/07/24 00:07:50;;;;;;;15.18;14.38;;;15.50;99.90;;;;;;5073001;28;20062;-57
2021/07/24 00:10:17;;;;;;;14.00;13.20;;;15.40;99.90;;;;;;5072672;28;20013;-56
2021/07/24 00:12:44;;;;;;;12.75;12.15;;;15.50;99.90;;;;;;5072577;28;20051;-56
2021/07/24 00:15:13;;;;;;;9.57;9.27;;;15.80;99.90;;;;;;5072664;28;20033;-57
2021/07/24 00:17:40;;;;;;;7.32;7.10;;;16.10;99.90;;;;;;5072732;28;20539;-58
2021/07/24 00:20:08;;;;;;;5.20;5.00;;;16.30;99.90;;;;;;5072759;28;20021;-58
2021/07/24 00:22:36;;;;;;;4.60;4.50;;;16.30;99.90;;;;;;5072507;28;20045;-56
2021/07/24 00:25:04;;;;;;;3.88;3.78;;;16.20;99.90;;;;;;5072577;28;20024;-57
2021/07/24 00:27:31;;;;;;;3.40;3.30;;;16.40;99.90;;;;;;5072702;28;20424;-57
2021/07/24 00:29:58;;;;;;;3.25;3.15;;;16.50;99.90;;;;;;5071918;28;20020;-56
2021/07/24 00:32:27;;;;;;;2.40;2.40;;;16.30;99.50;;;;;;5072533;28;20484;-57
2021/07/24 00:34:54;;;;;;;2.60;2.50;;;16.30;99.60;;;;;;5072431;28;20508;-54
2021/07/24 00:37:22;;;;;;;2.40;2.40;;;16.30;99.80;;;;;;5072346;28;20024;-56
2021/07/24 00:39:49;;;;;;;2.90;2.80;;;16.30;99.40;;;;;;5068305;28;20068;-56
2021/07/24 00:42:23;;;;;;;2.90;2.80;;;16.30;99.50;;;;;;5072453;28;20024;-58
2021/07/24 00:44:57;;;;;;;3.58;3.33;;;16.50;99.10;;;;;;5072434;28;20028;-56
2021/07/24 00:47:33;;;;;;;3.05;2.88;;;16.60;99.40;;;;;;5072557;28;20068;-58
2021/07/24 00:50:01;;;;;;;2.53;2.42;;;16.60;99.90;;;;;;5072554;28;20086;-58
2021/07/24 00:52:29;;;;;;;2.50;2.40;;;16.80;99.40;;;;;;5072593;28;20013;-57
2021/07/24 00:54:57;;;;;;;2.42;2.33;;;16.80;98.30;;;;;;5072462;28;20027;-57
2021/07/24 00:57:24;;;;;;;2.60;2.50;;;16.90;98.80;;;;;;5072240;28;20067;-58
2021/07/24 00:59:51;;;;;;;2.45;2.38;;;17.10;98.30;;;;;;5072374;28;20362;-59
2021/07/24 01:02:18;;;;;;;2.13;2.10;;;17.00;97.90;;;;;;5072342;28;20384;-57
2021/07/24 01:04:46;;;;;;;2.10;2.00;;;16.90;97.60;;;;;;5072155;28;20021;-57
2021/07/24 01:07:13;;;;;;;2.10;2.00;;;16.90;97.40;;;;;;5072260;28;20043;-55
2021/07/24 01:09:41;;;;;;;2.30;2.20;;;16.80;97.80;;;;;;5072130;28;20124;-57
2021/07/24 01:12:08;;;;;;;2.90;2.70;;;16.80;97.40;;;;;;5072143;28;20048;-57
2021/07/24 01:14:36;;;;;;;2.20;2.10;;;16.80;97.80;;;;;;5072192;28;20035;-57
2021/07/24 01:17:04;;;;;;;2.20;2.20;;;16.90;98.30;;;;;;5072158;28;20059;-56
2021/07/24 01:19:31;;;;;;;2.13;2.03;;;17.00;96.90;;;;;;5072168;28;20067;-57
2021/07/24 01:21:58;;;;;;;2.03;2.03;;;16.90;96.80;;;;;;5072023;28;20027;-56
2021/07/24 01:24:29;;;;;;;2.60;2.50;;;17.10;96.90;;;;;;5072121;28;20499;-54
2021/07/24 01:26:56;;;;;;;2.30;2.20;;;17.20;97.00;;;;;;5072137;28;20124;-57
2021/07/24 01:29:24;;;;;;;2.35;2.25;;;17.20;96.20;;;;;;5072379;28;20025;-56
2021/07/24 01:31:51;;;;;;;2.55;2.40;;;17.10;95.60;;;;;;5072059;28;20066;-58
2021/07/24 01:34:19;;;;;;;2.22;2.22;;;17.20;95.90;;;;;;5071934;28;20044;-54
2021/07/24 01:36:46;;;;;;;2.10;2.00;;;17.30;95.40;;;;;;5071815;28;20021;-55
2021/07/24 01:39:13;;;;;;;2.30;2.20;;;17.30;95.30;;;;;;5070537;28;20025;-56
2021/07/24 01:41:45;;;;;;;2.60;2.50;;;17.20;95.50;;;;;;5074377;28;20129;-57
2021/07/24 01:44:13;;;;;;;1.80;1.80;;;17.20;95.10;;;;;;5075416;28;20052;-59
2021/07/24 01:46:42;;;;;;;2.10;2.00;;;17.30;95.10;;;;;;5075822;28;20024;-57
2021/07/24 01:54:50;;;;;;;1.80;1.80;;;17.50;94.00;;;;;;5064101;28;20412;-58
2021/07/24 01:57:21;;;;;;;1.95;1.85;;;17.50;93.80;;;;;;5075095;28;20066;-58
2021/07/24 01:59:52;;;;;;;1.70;1.70;;;17.70;93.70;;;;;;5075254;28;20518;-57
2021/07/24 02:02:19;;;;;;;;;;;17.90;93.70;;;;;;5075298;28;20028;-57
2021/07/24 02:04:50;;;;;;;2.10;2.00;;;17.60;93.40;;;;;;5074706;28;20007;-57
2021/07/24 02:07:20;;;;;;;2.20;2.10;;;17.50;93.10;;;;;;5073719;28;20031;-56
2021/07/24 02:09:48;;;;;;;1.90;1.83;;;17.40;93.00;;;;;;5074973;28;20027;-57
2021/07/24 02:12:16;;;;;;;2.10;2.00;;;17.50;92.90;;;;;;5074872;28;20032;-57
2021/07/24 02:14:43;;;;;;;1.70;1.65;;;17.50;92.70;;;;;;5074748;28;20032;-57
2021/07/24 02:17:10;;;;;;;1.90;1.90;;;17.70;92.60;;;;;;5074805;28;20028;-58
2021/07/24 02:19:38;;;;;;;1.70;1.70;;;17.50;92.50;;;;;;5075272;28;20024;-57
2021/07/24 02:22:06;;;;;;;1.70;1.70;;;17.50;92.50;;;;;;5074667;28;20055;-56
2021/07/24 02:24:33;;;;;;;1.90;1.90;;;17.50;92.10;;;;;;5074589;28;20052;-56
2021/07/24 02:27:05;;;;;;;1.80;1.70;;;17.80;92.00;;;;;;5074766;28;20017;-57
2021/07/24 02:29:33;;;;;;;1.90;1.90;;;18.00;92.10;;;;;;5074641;28;20028;-56
2021/07/24 02:32:00;;;;;;;1.95;1.95;;;18.20;91.40;;;;;;5074420;28;20078;-57
2021/07/24 02:34:27;;;;;;;2.10;2.10;;;18.30;91.50;;;;;;5074545;28;20055;-55
2021/07/24 02:36:55;;;;;;;1.90;1.80;;;18.60;91.60;;;;;;5074566;28;20496;-56
2021/07/24 02:39:22;;;;;;;1.83;1.83;;;18.60;92.00;;;;;;5074421;28;20028;-56
2021/07/24 02:41:49;;;;;;;1.80;1.70;;;18.50;90.50;;;;;;5074359;28;20051;-57
2021/07/24 02:44:16;;;;;;;1.75;1.65;;;18.40;91.40;;;;;;5074339;28;20024;-55
2021/07/24 02:46:44;;;;;;;2.08;1.70;;;18.50;90.60;;;;;;5074510;28;20016;-57
2021/07/24 02:49:12;;;;;;;1.80;1.80;;;17.90;91.50;;;;;;5074306;28;20480;-58
2021/07/24 02:51:39;;;;;;;1.95;1.88;;;17.90;91.80;;;;;;5074115;28;20112;-58
2021/07/24 02:54:06;;;;;;;1.85;1.80;;;17.90;91.80;;;;;;5073703;28;20025;-58
2021/07/24 02:56:34;;;;;;;2.00;1.90;;;17.80;91.70;;;;;;5074019;28;20040;-58
2021/07/24 02:59:01;;;;;;;1.90;1.83;;;17.50;91.30;;;;;;5074077;28;20025;-57
2021/07/24 03:01:28;;;;;;;2.20;2.10;;;17.50;92.10;;;;;;5073966;28;20448;-57
2021/07/24 03:03:56;;;;;;;1.80;1.80;;;17.30;91.40;;;;;;5073765;28;20056;-57
2021/07/24 03:06:23;;;;;;;1.77;1.70;;;17.20;92.00;;;;;;5073917;28;20040;-58
2021/07/24 03:08:53;;;;;;;1.70;1.70;;;17.20;92.50;;;;;;5073811;28;20044;-62
2021/07/24 03:11:21;;;;;;;1.88;1.80;;;17.30;91.40;;;;;;5074007;28;20120;-62
2021/07/24 03:13:48;;;;;;;1.90;1.80;;;17.20;91.80;;;;;;5074307;28;20047;-60
2021/07/24 03:16:15;;;;;;;1.77;1.77;;;17.10;91.70;;;;;;5073750;28;20393;-61
2021/07/24 03:18:42;;;;;;;1.70;1.70;;;17.20;91.40;;;;;;5073703;28;20024;-56
2021/07/24 03:21:10;;;;;;;1.60;1.60;;;17.50;91.30;;;;;;5073723;28;20021;-60
2021/07/24 03:23:37;;;;;;;1.63;1.60;;;17.80;91.30;;;;;;5073711;28;20017;-57
2021/07/24 03:26:08;;;;;;;1.60;1.50;;;17.90;90.50;;;;;;5073762;28;20016;-59
2021/07/24 03:28:36;;;;;;;1.33;1.33;;;17.70;90.20;;;;;;5073427;28;20024;-59
2021/07/24 03:31:04;;;;;;;2.38;1.70;;;17.80;90.20;;;;;;5073521;28;20025;-58
2021/07/24 03:33:32;;;;;;;1.90;1.80;;;17.80;90.00;;;;;;5073459;28;20016;-60
2021/07/24 03:35:59;;;;;;;1.40;1.40;;;17.80;89.10;;;;;;5073622;28;20430;-61
2021/07/24 03:38:27;;;;;;;1.90;1.90;;;17.90;90.10;;;;;;5073446;28;20078;-60
2021/07/24 03:40:55;;;;;;;1.83;1.83;;;17.90;89.60;;;;;;5073315;28;20025;-61
2021/07/24 03:43:22;;;;;;;1.90;1.80;;;18.00;90.60;;;;;;5073367;28;20025;-59
2021/07/24 03:45:49;;;;;;;2.03;1.70;;;17.90;89.80;;;;;;5073009;28;20107;-62
2021/07/24 03:48:17;;;;;;;2.10;2.00;;;17.70;90.10;;;;;;5073439;28;20017;-59
2021/07/24 03:50:44;;;;;;;1.90;1.90;;;17.60;89.90;;;;;;5073019;28;20583;-59
2021/07/24 03:53:11;;;;;;;4.88;2.17;;;17.60;88.90;;;;;;5073040;28;20060;-61
2021/07/24 03:55:39;;;;;;;1.83;1.83;;;17.70;89.70;;;;;;5072790;28;20031;-59
2021/07/24 03:58:06;;;;;;;2.40;2.20;;;17.60;89.50;;;;;;5073051;28;20040;-59
2021/07/24 04:00:46;;;;;;;1.75;1.75;;;17.50;89.80;;;;;;5072955;28;20086;-59
2021/07/24 04:03:13;;;;;;;2.95;2.85;;;17.50;90.00;;;;;;5072676;28;20489;-60
2021/07/24 04:05:44;;;;;;;2.55;2.45;;;17.60;89.90;;;;;;5071903;28;20498;-60
2021/07/24 04:08:12;;;;;;;2.38;2.20;;;17.50;89.60;;;;;;5073013;28;20020;-59
2021/07/24 04:10:41;;;;;;;2.97;2.88;;;17.70;89.80;;;;;;5072660;28;20025;-62
2021/07/24 04:13:09;;;;;;;2.53;2.28;;;17.60;90.00;;;;;;5072626;28;20025;-60
2021/07/24 04:15:36;;;;;;;2.60;2.50;;;17.40;88.70;;;;;;5072740;28;20047;-60
2021/07/24 04:18:05;;;;;;;1.70;1.70;;;17.50;89.80;;;;;;5072713;28;20029;-60
2021/07/24 04:20:33;;;;;;;2.10;2.00;;;17.60;90.60;;;;;;5072639;28;20052;-61
2021/07/24 04:23:00;;;;;;;2.25;2.25;;;17.60;90.80;;;;;;5072594;28;20025;-59
2021/07/24 04:25:27;;;;;;;1.70;1.70;;;17.50;91.70;;;;;;5072593;28;20112;-60
2021/07/24 04:27:55;;;;;;;1.73;1.73;;;17.40;91.40;;;;;;5072906;28;20612;-59
2021/07/24 04:30:22;;;;;;;1.70;1.70;;;17.50;91.40;;;;;;5072626;28;20460;-60
2021/07/24 04:32:49;;;;;;;1.88;1.88;;;17.70;91.20;;;;;;5072616;28;20017;-60
2021/07/24 04:35:16;;;;;;;2.40;2.30;;;17.70;90.50;;;;;;5072723;28;20032;-60
2021/07/24 04:37:44;;;;;;;2.13;2.10;;;17.50;90.70;;;;;;5072535;28;20028;-60
2021/07/24 04:40:12;;;;;;;2.00;2.00;;;17.50;90.20;;;;;;5072569;28;20431;-61
2021/07/24 04:42:39;;;;;;;2.50;2.40;;;17.40;90.60;;;;;;5072614;28;20043;-62
2021/07/24 04:45:07;;;;;;;2.70;2.50;;;17.60;90.60;;;;;;5072584;28;20468;-60
2021/07/24 04:47:34;;;;;;;2.40;2.30;;;17.50;90.30;;;;;;5072467;28;20017;-58
2021/07/24 04:50:02;;;;;;;2.60;2.40;;;17.50;90.40;;;;;;5072346;28;20025;-59
2021/07/24 04:52:29;;;;;;;2.80;2.70;;;17.40;90.20;;;;;;5072473;28;20027;-59
2021/07/24 04:54:59;;;;;;;2.30;2.30;;;17.40;90.70;;;;;;5072631;28;20040;-62
2021/07/24 04:57:30;;;;;;;2.47;2.38;;;17.40;90.30;;;;;;5072350;28;20094;-61
2021/07/24 04:59:59;;;;;;;3.00;2.90;;;17.30;89.90;;;;;;5072676;28;20451;-60
2021/07/24 05:02:26;;;;;;;2.70;2.60;;;17.40;89.30;;;;;;5072669;28;20025;-61
2021/07/24 05:04:54;;;;;;;2.63;2.53;;;17.40;88.30;;;;;;5070882;28;20119;-58
2021/07/24 05:07:22;;;;;;;2.65;2.55;;;17.10;89.40;;;;;;5072507;28;20025;-59
2021/07/24 05:09:49;;;;;;;2.38;2.28;;;17.20;88.10;;;;;;5072324;28;20543;-60
2021/07/24 05:12:17;;;;;;;2.35;2.25;;;17.00;87.40;;;;;;5072211;28;20457;-61
2021/07/24 05:14:44;;;;;;;2.80;2.70;;;17.00;88.40;;;;;;5072248;28;20024;-60
2021/07/24 05:17:14;;;;;;;2.60;2.50;;;17.00;88.30;;;;;;5075367;28;20036;-58
2021/07/24 05:19:46;;;;;;;2.40;2.30;;;16.90;87.30;;;;;;5076250;28;20024;-59
2021/07/24 05:22:14;;;;;;;1.77;1.77;;;16.80;87.00;;;;;;5075944;28;20037;-59
2021/07/24 05:24:46;;;;;;;1.67;1.60;;;16.70;86.40;;;;;;5075885;28;20388;-60
2021/07/24 05:27:14;;;;;;;1.70;1.70;;;16.60;86.90;;;;;;5076204;28;20408;-59
2021/07/24 05:29:42;;;;;;;1.70;1.60;;;16.60;87.30;;;;;;5075633;28;20025;-58
2021/07/24 05:32:09;;;;;;;1.83;1.80;;;16.50;86.10;;;;;;5075787;28;20031;-58
2021/07/24 05:34:37;;;;;;;2.00;2.00;;;16.40;86.20;;;;;;5074477;28;20063;-61
2021/07/24 05:37:04;;;;;;;1.95;1.80;;;16.40;85.80;;;;;;5075649;28;20016;-57
2021/07/24 05:39:31;;;;;;;2.00;2.00;;;16.30;85.80;;;;;;5075521;28;20024;-56
2021/07/24 05:41:59;;;;;;;2.20;2.20;;;16.30;85.50;;;;;;5075693;28;20078;-59
2021/07/24 05:44:26;;;;;;;2.10;2.10;;;16.30;85.70;;;;;;5075456;28;20033;-59
2021/07/24 05:46:53;;;;;;;2.22;2.03;;;16.30;87.00;;;;;;5075724;28;20031;-59
2021/07/24 05:49:21;;;;;;;2.10;2.10;;;16.20;86.50;;;;;;5074050;28;20033;-59
2021/07/24 05:51:48;;;;;;;2.10;2.00;;;16.20;85.50;;;;;;5075445;28;20124;-59
2021/07/24 05:54:17;;;;;;;2.60;2.40;;;16.10;85.70;;;;;;5075469;28;20032;-59
2021/07/24 05:56:45;;;;;;;2.30;2.20;;;16.00;86.10;;;;;;5075213;28;20049;-62
2021/07/24 05:59:12;;;;;;;1.73;1.73;;;15.90;86.40;;;;;;5075182;28;20036;-61
2021/07/24 06:01:40;;;;;;;1.98;1.70;;;15.90;85.90;;;;;;5075241;28;20170;-60
2021/07/24 06:04:08;;;;;;;2.10;2.00;;;15.80;86.40;;;;;;5075149;28;20113;-61
2021/07/24 06:06:35;;;;;;;2.38;1.80;;;15.70;87.10;;;;;;5075268;28;20376;-61
2021/07/24 06:09:03;;;;;;;2.20;2.10;;;15.80;93.50;;;;;;5075020;28;20086;-61
2021/07/24 06:11:32;;;;;;;2.20;2.10;;;15.70;92.80;;;;;;5075166;28;20024;-61
2021/07/24 06:13:59;;;;;;;2.65;2.28;;;15.60;93.00;;;;;;5075080;28;20021;-61
2021/07/24 06:16:27;;;;;;;2.38;2.38;;;15.60;93.00;;;;;;5075260;28;20025;-61
2021/07/24 06:18:54;;;;;;;2.15;2.10;;;15.60;93.20;;;;;;5075173;28;20027;-63
2021/07/24 06:21:21;;;;;;;2.20;2.10;;;15.50;93.30;;;;;;5075012;28;20472;-61
2021/07/24 06:23:49;;;;;;;2.45;2.35;;;15.50;93.60;;;;;;5074933;28;20017;-62
2021/07/24 06:26:16;;;;;;;2.30;2.20;;;15.40;93.80;;;;;;5074842;28;20021;-60
2021/07/24 06:28:44;;;;;;;2.45;2.35;;;15.40;94.30;;;;;;5073728;28;20052;-60
2021/07/24 06:31:11;;;;;;;2.15;2.05;;;15.20;90.20;;;;;;5074753;28;20538;-60
2021/07/24 06:33:38;;;;;;;2.08;2.00;;;15.10;89.80;;;;;;5073417;28;20074;-60
2021/07/24 06:36:06;;;;;;;2.88;2.05;;;15.00;89.90;;;;;;5074670;28;20021;-59
2021/07/24 06:38:33;;;;;;;2.50;2.30;;;14.90;90.20;;;;;;5074508;28;20035;-61
2021/07/24 06:41:03;;;;;;;2.67;2.50;;;14.90;90.30;;;;;;5074474;28;20040;-62
2021/07/24 06:43:31;;;;;;;3.30;3.10;;;14.80;91.30;;;;;;5074983;28;20025;-60
2021/07/24 06:45:58;;;;;;;2.90;2.80;;;14.70;90.90;;;;;;5074295;28;20033;-59
2021/07/24 06:48:25;;;;;;;3.30;3.20;;;14.60;91.20;;;;;;5074361;28;20074;-59
2021/07/24 06:50:53;;;;;;;3.10;3.00;;;14.50;91.10;;;;;;5074204;28;20493;-59
2021/07/24 06:53:20;;;;;;;2.80;2.70;;;14.50;91.30;;;;;;5074204;28;20024;-58
2021/07/24 06:55:47;;;;;;;3.33;3.13;;;14.40;91.40;;;;;;5073989;28;20040;-59
2021/07/24 06:58:14;;;;;;;3.00;2.80;;;14.30;91.70;;;;;;5074084;28;20104;-59
2021/07/24 07:00:42;;;;;;;2.53;2.42;;;14.30;91.70;;;;;;5074028;28;20073;-58
2021/07/24 07:03:09;;;;;;;2.50;2.40;;;14.20;91.80;;;;;;5073842;28;20035;-58
2021/07/24 07:05:36;;;;;;;2.30;2.30;;;14.10;92.20;;;;;;5073717;28;20162;-59
2021/07/24 07:08:04;;;;;;;2.80;2.70;;;14.00;92.50;;;;;;5073767;28;20021;-58
2021/07/24 07:10:31;;;;;;;2.45;2.42;;;14.00;92.30;;;;;;5074060;28;20028;-58
2021/07/24 07:12:58;;;;;;;3.97;3.67;;;13.90;92.30;;;;;;5073916;28;20020;-58
2021/07/24 07:15:27;;;;;;;2.55;2.45;;;13.80;92.60;;;;;;5073988;28;20066;-59
2021/07/24 07:17:55;;;;;;;4.05;3.75;;;13.80;92.50;;;;;;5074031;28;20485;-59
2021/07/24 07:20:22;;;;;;;2.78;2.67;;;13.60;92.70;;;;;;5073940;28;20446;-59
2021/07/24 07:22:50;;;;;;;2.63;2.53;;;13.60;93.00;;;;;;5073760;28;20453;-59
2021/07/24 07:25:17;;;;;;;8.18;7.68;;;13.50;92.90;;;;;;5073305;28;20036;-58
2021/07/24 07:27:45;;;;;;;2.53;2.42;;;13.40;93.20;;;;;;5072163;28;20100;-58
2021/07/24 07:30:14;;;;;;;2.90;2.80;;;13.40;93.10;;;;;;5073427;28;20028;-59
2021/07/24 07:32:41;;;;;;;2.90;2.80;;;13.40;92.90;;;;;;5073489;28;20056;-58
2021/07/24 07:35:09;;;;;;;2.63;2.50;;;13.40;93.00;;;;;;5073343;28;20469;-59
2021/07/24 07:37:50;;;;;;;2.70;2.60;;;13.30;93.00;;;;;;5073382;28;20074;-58
2021/07/24 07:40:22;;;;;;;8.43;7.65;;;13.20;92.70;;;;;;5073092;28;20032;-61
2021/07/24 07:42:50;;;;;;;2.50;2.40;;;13.20;94.00;;;;;;5073267;28;20060;-60
2021/07/24 07:45:18;;;;;;;2.70;2.60;;;13.20;92.80;;;;;;5073095;28;20066;-60
2021/07/24 07:47:45;;;;;;;2.50;2.40;;;13.20;92.70;;;;;;5073210;28;20029;-60
2021/07/24 07:50:12;;;;;;;2.70;2.50;;;13.20;92.70;;;;;;5074054;28;20017;-59
2021/07/24 07:52:40;;;;;;;2.45;2.35;;;13.10;92.30;;;;;;5073145;28;20054;-59
2021/07/24 07:55:07;;;;;;;2.40;2.30;;;13.00;92.40;;;;;;5073264;28;20468;-61
2021/07/24 07:57:35;;;;;;;6.90;6.40;;;12.90;92.40;;;;;;5073223;28;20051;-61
2021/07/24 08:00:02;;;;;;;3.67;3.47;;;12.90;93.00;;;;;;5076410;28;20034;-61
2021/07/24 08:02:29;;;;;;;3.05;2.95;;;12.80;93.00;;;;;;5076723;28;20028;-63
2021/07/24 08:04:59;;;;;;;2.90;2.70;;;12.80;92.70;;;;;;5074738;28;20033;-61
2021/07/24 08:07:27;;;;;;;9.05;8.15;;;12.70;93.00;;;;;;5073985;28;20027;-62
2021/07/24 08:09:56;;;;;;;2.67;2.58;;;12.70;92.90;;;;;;5073118;28;20031;-61
2021/07/24 08:12:25;;;;;;;2.42;2.33;;;12.70;92.20;;;;;;5073438;28;20020;-61
2021/07/24 08:14:53;;;;;;;2.50;2.40;;;12.70;92.30;;;;;;5072916;28;20024;-60
2021/07/24 08:17:21;;;;;;;2.20;2.10;;;12.80;92.10;;;;;;5073044;28;20056;-60
2021/07/24 08:19:49;;;;;;;2.10;2.00;;;12.80;92.00;;;;;;5073129;28;20033;-61
2021/07/24 08:22:16;;;;;;;2.30;2.20;;;12.90;91.80;;;;;;5073559;28;20024;-62
2021/07/24 08:24:43;;;;;;;2.28;2.17;;;12.80;91.70;;;;;;5073569;28;20055;-60
2021/07/24 08:27:11;;;;;;;2.28;2.20;;;12.80;91.90;;;;;;5076063;28;20025;-61
2021/07/24 08:29:38;;;;;;;2.78;2.58;;;12.80;92.00;;;;;;5073455;28;20476;-63
2021/07/24 08:32:09;;;;;;;2.70;2.60;;;12.70;91.70;;;;;;5072928;28;20032;-60
2021/07/24 08:34:37;;;;;;;2.50;2.40;;;12.70;91.90;;;;;;5072610;28;20054;-63
2021/07/24 08:37:06;;;;;;;4.03;3.63;;;12.70;91.90;;;;;;5071317;28;20031;-63
2021/07/24 08:39:35;;;;;;;3.25;3.05;;;12.60;92.00;;;;;;5072651;28;20021;-60
2021/07/24 08:42:07;;;;;;;3.33;3.10;;;12.60;92.70;;;;;;5072569;28;20054;-61
2021/07/24 08:44:40;;;;;;;3.28;2.90;;;12.60;93.10;;;;;;5072607;28;20029;-61
2021/07/24 08:47:08;;;;;;;3.70;3.50;;;12.40;92.60;;;;;;5072643;28;20028;-59
2021/07/24 08:49:35;;;;;;;3.25;3.05;;;12.40;93.90;;;;;;5072558;28;20118;-59
2021/07/24 08:52:04;;;;;;;3.53;3.22;;;12.30;93.60;;;;;;5075817;28;20017;-58
2021/07/24 08:54:31;;;;;;;3.50;3.28;;;12.30;93.20;;;;;;5076448;28;20035;-58
2021/07/24 08:57:00;;;;;;;3.83;3.55;;;12.20;93.70;;;;;;5076395;28;20075;-58
2021/07/24 08:59:28;;;;;;;5.22;4.72;;;12.10;94.20;;;;;;5076537;28;20059;-59
2021/07/24 09:01:56;;;;;;;3.53;3.33;;;12.00;93.90;;;;;;5076459;28;20070;-58
2021/07/24 09:04:24;;;;;;;3.95;3.65;;;12.10;93.60;;;;;;5076172;28;20039;-59
2021/07/24 09:07:01;;;;;;;2.72;2.63;;;12.10;93.80;;;;;;5076238;28;20029;-56
2021/07/24 09:09:29;;;;;;;3.65;3.40;;;12.20;93.60;;;;;;5076181;28;20017;-59
2021/07/24 09:11:56;;;;;;;3.90;3.60;;;12.10;94.20;;;;;;5076163;28;20016;-58
2021/07/24 09:14:24;;;;;;;3.72;3.50;;;11.90;94.00;;;;;;5076214;28;20032;-56
2021/07/24 09:16:52;;;;;;;3.95;3.65;;;11.80;95.20;;;;;;5075885;28;20028;-51
2021/07/24 09:19:23;;;;;;;4.40;4.10;;;11.70;94.90;;;;;;5075876;28;20036;-57
2021/07/24 09:21:50;;;;;;;4.97;4.57;;;11.80;94.70;;;;;;5076227;28;20024;-57
2021/07/24 09:24:23;;;;;;;5.32;4.82;;;11.80;95.40;;;;;;5075795;28;20536;-55
2021/07/24 09:26:50;;;;;;;4.72;4.32;;;11.70;95.70;;;;;;5075909;28;20017;-56
2021/07/24 09:29:19;;;;;;;4.32;4.03;;;11.50;95.50;;;;;;5075756;28;20012;-58
2021/07/24 09:31:48;;;;;;;3.97;3.70;;;11.50;95.50;;;;;;5075656;28;20047;-58
2021/07/24 09:34:16;;;;;;;3.95;3.75;;;11.50;95.70;;;;;;5075941;28;20491;-56
2021/07/24 09:36:47;;;;;;;3.42;3.22;;;11.40;96.40;;;;;;5075651;28;20028;-56
2021/07/24 09:39:16;;;;;;;3.20;3.00;;;11.30;96.30;;;;;;5075764;28;20112;-56
2021/07/24 09:41:46;;;;;;;3.22;2.97;;;11.30;96.20;;;;;;5075595;28;20481;-58
2021/07/24 09:44:31;;;;;;;3.25;3.05;;;11.30;96.50;;;;;;5075440;28;20024;-56
2021/07/24 09:46:59;;;;;;;2.90;2.75;;;11.20;96.80;;;;;;5075644;28;20023;-57
2021/07/24 09:49:41;;;;;;;3.50;3.22;;;11.00;96.80;;;;;;5075582;28;20031;-54
2021/07/24 09:52:13;;;;;;;3.30;2.97;;;10.90;97.30;;;;;;5075513;28;20512;-58
2021/07/24 09:54:41;;;;;;;3.78;3.47;;;10.80;97.30;;;;;;5075393;28;20051;-55
2021/07/24 09:57:08;;;;;;;6.57;6.03;;;10.70;97.60;;;;;;5075573;28;20514;-56
2021/07/24 09:59:36;;;;;;;4.68;4.28;;;10.60;97.60;;;;;;5075285;28;20029;-57
2021/07/24 10:02:06;;;;;;;3.20;3.00;;;10.50;98.00;;;;;;5075315;28;20021;-55
2021/07/24 10:04:34;;;;;;;2.63;2.42;;;10.50;98.30;;;;;;5074994;28;20035;-56
2021/07/24 10:07:09;;;;;;;3.25;3.03;;;10.50;98.20;;;;;;5075047;28;20025;-59
2021/07/24 10:09:41;;;;;;;4.07;3.78;;;10.40;98.70;;;;;;5075114;28;20075;-56
2021/07/24 10:12:13;;;;;;;4.90;4.50;;;10.40;98.70;;;;;;5075409;28;20035;-50
2021/07/24 10:14:41;;;;;;;3.08;2.88;;;10.40;98.90;;;;;;5073663;28;20028;-57
2021/07/24 10:17:09;;;;;;;2.92;2.72;;;10.40;98.90;;;;;;5074934;28;20112;-56
2021/07/24 10:19:36;;;;;;;2.90;2.70;;;10.40;99.10;;;;;;5075142;28;20032;-55
2021/07/24 10:22:04;;;;;;;3.00;2.80;;;10.50;98.50;;;;;;5074849;28;20108;-56
2021/07/24 10:24:31;;;;;;;2.63;2.53;;;10.50;98.40;;;;;;5074535;28;20028;-53
2021/07/24 10:27:04;;;;;;;2.88;2.78;;;10.60;97.80;;;;;;5073462;28;20024;-57
2021/07/24 10:29:35;;;;;;;2.50;2.40;;;10.70;98.90;;;;;;5074691;28;20036;-53
2021/07/24 10:32:14;;;;;;;2.22;2.13;;;10.70;97.90;;;;;;5074874;28;20503;-54
2021/07/24 10:34:53;;;;;;;2.10;2.00;;;10.90;97.70;;;;;;5074958;28;20098;-58
2021/07/24 10:37:49;;;;;;;2.08;1.98;;;11.10;97.60;;;;;;5074557;28;20078;-57
2021/07/24 10:40:27;;;;;;;2.72;2.20;;;11.00;97.90;;;;;;5074645;28;20024;-57
2021/07/24 10:42:55;;;;;;;2.10;2.00;;;11.20;97.40;;;;;;5074493;28;20028;-56
2021/07/24 10:45:37;;;;;;;2.10;2.00;;;11.10;97.60;;;;;;5074381;28;20040;-54
2021/07/24 10:48:16;;;;;;;2.60;2.28;;;11.10;97.50;;;;;;5074707;28;20039;-56
2021/07/24 10:51:15;;;;;;;2.38;2.25;;;11.10;97.70;;;;;;5074720;28;20100;-57
2021/07/24 10:54:05;;;;;;;2.53;2.42;;;11.10;97.40;;;;;;5074231;28;20089;-57
2021/07/24 10:56:42;;;;;;;2.50;2.40;;;11.10;97.00;;;;;;5074348;28;20205;-57
2021/07/24 10:59:15;;;;;;;2.22;2.13;;;11.20;97.50;;;;;;5074436;28;20028;-58
2021/07/24 11:01:54;;;;;;;2.30;2.20;;;11.00;97.30;;;;;;5074361;28;20105;-59
2021/07/24 11:04:41;;;;;;;2.42;2.33;;;11.00;97.40;;;;;;5073974;28;20033;-58
2021/07/24 11:07:17;;;;;;;2.83;2.63;;;11.00;97.20;;;;;;5073988;28;20032;-58
2021/07/24 11:09:45;;;;;;;3.00;2.78;;;10.90;97.70;;;;;;5074314;28;20025;-56
2021/07/24 11:12:14;;;;;;;2.70;2.50;;;10.90;98.20;;;;;;5073965;28;20017;-57
2021/07/24 11:14:45;;;;;;;2.50;2.40;;;10.90;97.50;;;;;;5073534;28;20017;-58
2021/07/24 11:17:14;;;;;;;2.53;2.33;;;11.10;97.30;;;;;;5073961;28;20488;-58
2021/07/24 11:19:54;;;;;;;2.00;1.90;;;11.00;97.60;;;;;;5073940;28;20431;-58
2021/07/24 11:22:22;;;;;;;2.47;2.30;;;11.00;97.40;;;;;;5074119;28;20028;-58
2021/07/24 11:24:52;;;;;;;2.50;2.40;;;11.00;97.70;;;;;;5073798;28;20028;-57
2021/07/24 11:27:29;;;;;;;2.50;2.40;;;11.00;98.20;;;;;;5073871;28;20393;-56
2021/07/24 11:30:10;;;;;;;2.20;2.10;;;10.90;98.00;;;;;;5072445;28;20373;-58
2021/07/24 11:32:47;;;;;;;2.30;2.20;;;10.90;98.00;;;;;;5073606;28;20116;-57
2021/07/24 11:35:15;;;;;;;2.30;2.10;;;11.00;97.70;;;;;;5073552;28;20145;-55
2021/07/24 11:38:01;;;;;;;2.10;2.00;;;11.00;98.70;;;;;;5073464;28;20092;-57
2021/07/24 11:40:31;;;;;;;2.47;2.20;;;10.90;98.20;;;;;;5073533;28;20048;-57
2021/07/24 11:43:06;;;;;;;1.90;1.80;;;11.00;98.40;;;;;;5073335;28;20044;-57
2021/07/24 11:45:35;;;;;;;2.15;2.05;;;11.00;98.30;;;;;;5073294;28;20025;-57
2021/07/24 11:48:16;;;;;;;1.90;1.80;;;10.90;98.70;;;;;;5073289;28;20019;-58
2021/07/24 11:50:51;;;;;;;2.35;2.00;;;10.80;99.20;;;;;;5073605;28;20032;-55
2021/07/24 11:53:21;;;;;;;3.20;1.90;;;10.80;99.20;;;;;;5073166;28;20021;-58
2021/07/24 11:55:49;;;;;;;1.58;1.48;;;10.70;99.70;;;;;;5073093;28;20481;-58
2021/07/24 11:58:19;;;;;;;1.70;1.60;;;10.70;99.90;;;;;;5073671;28;20024;-59
2021/07/24 12:00:53;;;;;;;1.88;1.77;;;10.90;99.90;;;;;;5073136;28;20032;-58
2021/07/24 12:03:31;;;;;;;2.10;2.00;;;10.90;99.90;;;;;;5073032;28;20032;-57
2021/07/24 12:06:10;;;;;;;2.35;2.15;;;10.90;99.90;;;;;;5072973;28;20032;-56
2021/07/24 12:08:41;;;;;;;1.80;1.70;;;10.90;99.70;;;;;;5073152;28;20020;-56
2021/07/24 12:11:18;;;;;;;2.05;1.95;;;10.80;99.90;;;;;;5073041;28;20025;-59
2021/07/24 12:13:46;;;;;;;1.88;1.75;;;10.80;99.90;;;;;;5073094;28;20024;-58
2021/07/24 12:16:17;;;;;;;1.90;1.80;;;10.90;99.90;;;;;;5073065;28;20035;-60
2021/07/24 12:18:50;;;;;;;1.90;1.80;;;10.90;99.90;;;;;;5073024;28;20392;-58
2021/07/24 12:21:25;;;;;;;4.28;2.45;;;10.90;99.90;;;;;;5072954;28;20028;-57
2021/07/24 12:24:06;;;;;;;1.80;1.70;;;10.90;99.90;;;;;;5073064;28;20425;-56
2021/07/24 12:26:46;;;;;;;2.13;2.00;;;10.90;99.90;;;;;;5072087;28;20028;-59
2021/07/24 12:29:13;;;;;;;2.22;2.13;;;10.80;99.90;;;;;;5072963;28;20051;-58
2021/07/24 12:31:47;;;;;;;2.10;2.00;;;10.80;99.90;;;;;;5072812;28;20040;-57
2021/07/24 12:34:19;;;;;;;2.03;1.92;;;10.80;99.90;;;;;;5072937;28;20033;-58
2021/07/24 12:36:55;;;;;;;1.80;1.70;;;10.80;99.90;;;;;;5072783;28;20027;-58
2021/07/24 12:39:24;;;;;;;1.70;1.60;;;10.90;99.90;;;;;;5072874;28;20025;-57
2021/07/24 12:42:03;;;;;;;1.88;1.77;;;10.90;99.90;;;;;;5072797;28;20108;-57
2021/07/24 12:44:32;;;;;;;2.67;1.58;;;10.90;99.90;;;;;;5072534;28;20039;-59
2021/07/24 12:47:16;;;;;;;2.00;1.83;;;10.90;99.90;;;;;;5072719;28;20419;-59
2021/07/24 12:49:45;;;;;;;1.73;1.70;;;11.00;99.90;;;;;;5072738;28;20017;-58
2021/07/24 12:52:37;;;;;;;1.80;1.70;;;10.90;99.90;;;;;;5072764;28;20025;-56
2021/07/24 12:55:14;;;;;;;1.77;1.60;;;10.90;99.90;;;;;;5072701;28;20035;-57
2021/07/24 12:57:42;;;;;;;2.00;1.90;;;11.10;99.90;;;;;;5072531;28;20123;-56
2021/07/24 13:00:12;;;;;;;2.30;2.20;;;11.10;99.90;;;;;;5072605;28;20021;-57
2021/07/24 13:02:40;;;;;;;2.53;2.40;;;11.20;99.90;;;;;;5072531;28;20216;-59